DW5978 Whyalla SA AU current weather conditions

sailwx.info

Wind from 235 at 7 knots gusting 13

Air temperature 17.8° C
Dewpoint 14.8° C

Last reported at 2017-Oct-18 22:02 UTC.
Time now 2017-Oct-18 22:23 UTC

Location: S 33°01' E 137°32'.
View on Google Maps.

See reports from other nearby stations

  
Tides and Currents Weather Stations Pressure Air Temp Water Temp Dewpoint Dewpoint Depression Visibility Wind Speed Wind Dir Waves Ship Positions
date/time (UTC)wind fromknots sea level pressurealtimeterstation pressurevisibilityair tempwater tempwave heightnotes
2017-Oct-18 22:02 235 7 gusting 13 17.8
2017-Oct-18 21:47 219 6 gusting 10 17.8
2017-Oct-18 21:34 214 5 gusting 11 18.3
2017-Oct-18 21:27 204 5 gusting 10 18.3
2017-Oct-18 21:18 184 4 gusting 7 19.4
2017-Oct-18 21:01 273 2 gusting 6 19.4
2017-Oct-18 20:32 285 2 gusting 7 19.4
2017-Oct-18 20:17 291 2 gusting 4 18.9
2017-Oct-18 20:02 329 3 gusting 5 18.9
2017-Oct-18 19:47 338 5 gusting 10 18.9
2017-Oct-18 19:32 352 5 gusting 8 18.9
2017-Oct-18 19:17 349 3 gusting 6 18.9
2017-Oct-18 19:02 347 4 gusting 6 18.9
2017-Oct-18 18:47 334 3 gusting 6 18.9
2017-Oct-18 18:32 337 1 gusting 8 19.4
2017-Oct-18 18:17 334 5 gusting 9 19.4
2017-Oct-18 18:02 294 3 gusting 7 20.0
2017-Oct-18 17:47 248 2 gusting 5 21.1
2017-Oct-18 17:31 072 4 gusting 6 22.2
2017-Oct-18 17:16 130 22.2
2017-Oct-18 17:01 133 0 gusting 3 22.2
2017-Oct-18 16:46 204 1 gusting 4 22.2
2017-Oct-18 16:31 258 0 gusting 6 22.8
2017-Oct-18 16:16 272 0 gusting 6 22.8
2017-Oct-18 16:01 279 22.8
2017-Oct-18 15:46 096 1 gusting 3 23.3
2017-Oct-18 15:31 125 0 gusting 4 23.9
2017-Oct-18 15:16 143 1 gusting 6 23.3
2017-Oct-18 15:01 133 4 gusting 6 23.3
2017-Oct-18 14:46 145 3 gusting 6 22.8
2017-Oct-18 14:31 130 2 gusting 6 22.8
2017-Oct-18 14:16 146 1 gusting 5 22.8
2017-Oct-18 14:01 113 2 gusting 8 22.2
2017-Oct-18 13:46 132 3 gusting 7 22.2
2017-Oct-18 13:31 126 2 gusting 9 22.2
2017-Oct-18 13:01 204 1 gusting 6 26.1
2017-Oct-18 12:46 197 4 gusting 8 26.1
2017-Oct-18 12:30 226 4 gusting 8 26.1
2017-Oct-18 12:15 228 4 gusting 7 26.7
2017-Oct-18 12:00 226 4 gusting 9 27.2
2017-Oct-18 11:45 241 1 gusting 5 27.2
2017-Oct-18 11:30 209 2 gusting 4 27.2
2017-Oct-18 11:15 209 3 gusting 7 27.8
2017-Oct-18 11:00 204 4 gusting 12 27.8
2017-Oct-18 10:45 226 5 gusting 12 28.3
2017-Oct-18 10:31 250 9 gusting 17 28.9
2017-Oct-18 10:15 232 6 gusting 18 29.4
2017-Oct-18 10:00 219 6 gusting 13 30.0
2017-Oct-18 09:45 013 1 gusting 3 31.1
2017-Oct-18 09:30 020 2 gusting 6 31.7
2017-Oct-18 09:15 022 3 gusting 6 31.7
2017-Oct-18 09:00 019 4 gusting 6 32.2
2017-Oct-18 08:45 004 3 gusting 7 32.8
2017-Oct-18 08:30 001 5 gusting 9 33.3
2017-Oct-18 08:15 344 8 gusting 12 33.3
2017-Oct-18 08:00 341 6 gusting 13 33.3
2017-Oct-18 07:45 002 7 gusting 13 33.9
2017-Oct-18 07:30 339 8 gusting 16 34.4
2017-Oct-18 07:15 358 5 gusting 12 34.4
2017-Oct-18 07:00 024 8 gusting 17 35.0
2017-Oct-18 06:45 016 8 gusting 13 33.9
2017-Oct-18 06:30 037 8 gusting 15 34.4
2017-Oct-18 06:15 003 8 gusting 15 33.9
2017-Oct-18 06:00 024 6 gusting 13 34.4
2017-Oct-18 05:45 343 8 gusting 17 34.4
2017-Oct-18 05:30 337 6 gusting 17 34.4
2017-Oct-18 05:15 330 9 gusting 18 35.0
2017-Oct-18 05:00 343 9 gusting 17 35.0
2017-Oct-18 04:45 016 7 gusting 20 33.9
2017-Oct-18 04:30 343 8 gusting 19 33.9
2017-Oct-18 04:15 009 10 gusting 16 34.4
2017-Oct-18 04:00 022 9 gusting 18 35.0
2017-Oct-18 03:45 014 10 gusting 18 35.0
2017-Oct-18 03:35 022 7 gusting 15 33.9
2017-Oct-18 03:23 026 11 gusting 23 34.4
2017-Oct-18 03:00 024 10 gusting 19 33.9
2017-Oct-18 02:45 061 10 gusting 19 33.9
2017-Oct-18 02:29 052 9 gusting 19 33.3
2017-Oct-18 02:14 320 13 gusting 18 33.3
2017-Oct-18 02:00 049 15 gusting 20 33.3
2017-Oct-18 01:44 029 13 gusting 22 32.8
2017-Oct-18 01:30 061 11 gusting 18 32.8
2017-Oct-18 01:14 008 10 gusting 22 32.8
2017-Oct-18 00:59 341 11 gusting 22 32.2
2017-Oct-18 00:44 024 13 gusting 23 32.2
2017-Oct-18 00:29 018 14 gusting 21 32.2
2017-Oct-18 00:14 020 12 gusting 19 31.7
2017-Oct-17 23:59 052 18 gusting 25 31.1
2017-Oct-17 23:44 050 13 gusting 23 31.1
2017-Oct-17 23:29 027 13 gusting 24 30.0
2017-Oct-17 23:14 024 13 gusting 23 30.6
2017-Oct-17 22:59 009 15 gusting 26 30.0
2017-Oct-17 22:44 359 13 gusting 21 30.0
2017-Oct-17 22:29 037 16 gusting 21 29.4
2017-Oct-17 22:14 022 13 gusting 19 28.9
2017-Oct-17 21:59 051 8 gusting 15 28.3
2017-Oct-17 21:44 026 7 gusting 17 27.2
2017-Oct-17 21:29 038 6 gusting 13 26.7
2017-Oct-17 21:14 051 6 gusting 12 26.1
2017-Oct-17 20:59 033 6 gusting 10 26.1
2017-Oct-17 20:44 043 6 gusting 10 26.1
2017-Oct-17 20:29 037 7 gusting 13 26.1
2017-Oct-17 20:14 045 6 gusting 13 26.1
2017-Oct-17 19:59 035 6 gusting 13 25.6
2017-Oct-17 19:44 040 6 gusting 9 25.6
2017-Oct-17 19:29 056 5 gusting 10 25.6
2017-Oct-17 19:14 041 6 gusting 9 25.6
2017-Oct-17 18:59 038 5 gusting 11 26.1
2017-Oct-17 18:44 041 5 gusting 8 25.0
2017-Oct-17 18:29 350 2 gusting 3 20.0
2017-Oct-17 18:13 357 2 gusting 6 23.9
2017-Oct-17 17:58 010 5 gusting 11 26.7
2017-Oct-17 17:43 043 7 gusting 13 26.7
2017-Oct-17 17:29 035 7 gusting 15 27.2
2017-Oct-17 17:13 013 9 gusting 13 27.2
2017-Oct-17 16:59 034 6 gusting 13 27.2
2017-Oct-17 16:43 014 5 gusting 9 26.1
2017-Oct-17 16:28 018 6 gusting 10 26.7
2017-Oct-17 16:13 032 6 gusting 12 27.2
2017-Oct-17 15:58 014 6 gusting 13 27.2
2017-Oct-17 15:43 067 6 gusting 13 27.2
2017-Oct-17 15:28 047 8 gusting 12 27.2
2017-Oct-17 15:13 056 8 gusting 18 27.8
2017-Oct-17 14:58 032 7 gusting 13 27.2
2017-Oct-17 14:43 062 4 gusting 7 26.7
2017-Oct-17 14:28 050 6 gusting 11 27.8
2017-Oct-17 14:13 053 6 gusting 14 27.8
2017-Oct-17 13:58 033 7 gusting 15 27.2
2017-Oct-17 13:43 036 5 gusting 9 26.7
2017-Oct-17 13:28 041 6 gusting 11 26.7
2017-Oct-17 13:13 076 6 gusting 9 26.7
2017-Oct-17 12:58 049 6 gusting 10 26.7
2017-Oct-17 12:43 059 5 gusting 8 26.7
2017-Oct-17 12:28 033 6 gusting 10 27.2
2017-Oct-17 12:13 060 6 gusting 10 27.2
2017-Oct-17 11:58 042 6 gusting 8 27.2
2017-Oct-17 11:43 054 6 gusting 9 27.2
2017-Oct-17 11:28 049 5 gusting 10 27.2
2017-Oct-17 11:13 061 6 gusting 8 27.2
2017-Oct-17 10:58 058 4 gusting 6 27.8
2017-Oct-17 10:43 051 4 gusting 7 27.8
2017-Oct-17 10:28 058 4 gusting 7 28.3
2017-Oct-17 10:13 071 6 gusting 10 28.9
2017-Oct-17 09:58 078 6 gusting 8 28.9
2017-Oct-17 09:43 078 5 gusting 7 29.4
2017-Oct-17 09:28 072 3 gusting 6 29.4
2017-Oct-17 09:13 064 6 gusting 11 30.6
2017-Oct-17 08:58 093 7 gusting 13 31.1
2017-Oct-17 08:43 077 7 gusting 13 31.1
2017-Oct-17 08:28 102 10 gusting 16 31.7
2017-Oct-17 08:13 045 8 gusting 18 32.2
2017-Oct-17 07:58 065 10 gusting 19 32.8
2017-Oct-17 07:43 047 9 gusting 14 32.8
2017-Oct-17 07:27 045 11 gusting 14 32.8
2017-Oct-17 07:12 031 8 gusting 15 33.3
2017-Oct-17 06:57 064 6 gusting 18 32.8
2017-Oct-17 06:43 110 8 gusting 15 33.3
2017-Oct-17 06:28 038 7 gusting 18 33.9
2017-Oct-17 06:13 074 6 gusting 18 33.9
2017-Oct-17 05:58 082 11 gusting 19 33.9
2017-Oct-17 05:43 022 12 gusting 22 33.9
2017-Oct-17 05:27 050 7 gusting 18 33.9
2017-Oct-17 05:12 067 8 gusting 19 33.9
2017-Oct-17 04:57 131 5 gusting 12 33.3
2017-Oct-17 04:43 066 8 gusting 14 33.9
2017-Oct-17 04:27 093 7 gusting 13 33.3
2017-Oct-17 04:12 031 6 gusting 14 33.3
2017-Oct-17 03:57 059 7 gusting 18 33.9
2017-Oct-17 03:42 025 9 gusting 13 33.3
2017-Oct-17 03:32 030 8 gusting 22 33.3
2017-Oct-17 03:20 051 10 gusting 17 33.3
2017-Oct-17 02:57 018 8 gusting 18 33.3
2017-Oct-17 02:42 029 12 gusting 20 32.8
2017-Oct-17 02:27 003 11 gusting 19 32.8
2017-Oct-17 02:12 031 9 gusting 17 32.2
2017-Oct-17 01:57 010 13 gusting 22 32.2
2017-Oct-17 01:42 024 13 gusting 23 32.2
2017-Oct-17 01:27 045 11 gusting 19 31.7
2017-Oct-17 01:12 044 10 gusting 15 31.7
2017-Oct-17 00:57 006 10 gusting 19 31.1
2017-Oct-17 00:42 007 11 gusting 22 31.1
2017-Oct-17 00:33 050 13 gusting 19 30.6
2017-Oct-17 00:22 030 12 gusting 21 30.6
2017-Oct-17 00:05 045 13 gusting 22 30.6
2017-Oct-16 23:47 019 13 gusting 19 30.6
2017-Oct-16 23:29 020 13 gusting 19 30.0
2017-Oct-16 23:12 047 15 gusting 24 29.4
2017-Oct-16 22:57 004 9 gusting 16 30.0
2017-Oct-16 22:41 041 6 gusting 10 28.9
2017-Oct-16 22:26 015 6 gusting 12 27.8
2017-Oct-16 22:11 031 4 gusting 8 27.2